ADDS METAR Data INFO
IDs: Format: Raw Decoded Include TAF

Data at: 0128 UTC 23 Nov 2017

METAR for:PAOU (Nelson Lagoon Arpt, AK, US)
Text:PAOU 230106Z AUTO 24021G28KT 4SM BR FEW009 SCT021 OVC032 06/04 A2944 RMK AO2 PK WND 24028/0106
Temperature: 6.0°C ( 43°F)
Dewpoint: 4.0°C ( 39°F) [RH = 87%]
Pressure (altimeter):29.44 inches Hg ( 997.0 mb)
Winds:from the WSW (240 degrees) at 24 MPH (21 knots; 10.8 m/s) gusting to 32 MPH (28 knots; 14.4 m/s)
Visibility: 4 sm ( 6 km)
Ceiling:3200 feet AGL
Clouds: few clouds at 900 feet AGL, scattered clouds at 2100 feet AGL, overcast cloud deck at 3200 feet AGL
Weather:BR (mist)
QC Flag:automated observation with no human augmentation
Text:PAOU 230056Z AUTO 25026G39KT 5SM BR SCT009 BKN015 OVC032 06/05 A2943 RMK AO2 PK WND 25039/0048 RAE48 SLP967 P0001 T00610050
Temperature: 6.1°C ( 43°F)
Dewpoint: 5.0°C ( 41°F) [RH = 93%]
Pressure (altimeter):29.43 inches Hg ( 996.7 mb) [Sea level pressure: 996.7 mb]
Winds:from the WSW (250 degrees) at 30 MPH (26 knots; 13.4 m/s) gusting to 45 MPH (39 knots; 20.1 m/s)
Visibility: 5 sm ( 8 km)
Ceiling:1500 feet AGL
Clouds: scattered clouds at 900 feet AGL, broken clouds at 1500 feet AGL, overcast cloud deck at 3200 feet AGL
Weather:BR (mist)
QC Flag:automated observation with no human augmentation
Text:PAOU 230045Z AUTO 25026G34KT 4SM -RA BR BKN009 BKN022 OVC032 06/06 A2944 RMK AO2 PK WND 24034/0039 CIG 006V013 P0001
Temperature: 6.0°C ( 43°F)
Dewpoint: 6.0°C ( 43°F) [RH = 100%]
Pressure (altimeter):29.44 inches Hg ( 997.0 mb)
Winds:from the WSW (250 degrees) at 30 MPH (26 knots; 13.4 m/s) gusting to 39 MPH (34 knots; 17.5 m/s)
Visibility: 4 sm ( 6 km)
Ceiling:900 feet AGL
Clouds: broken clouds at 900 feet AGL, broken clouds at 2200 feet AGL, overcast cloud deck at 3200 feet AGL
Weather:-RA BR (light rain, mist)
QC Flag:automated observation with no human augmentation
Text:PAOU 230035Z AUTO 23024G30KT 2 1/2SM -RA BR BKN009 OVC017 07/07 A2943 RMK AO2 PK WND 24030/0033 VIS 1 1/2V4 CIG 006V012 P0001
Temperature: 7.0°C ( 45°F)
Dewpoint: 7.0°C ( 45°F) [RH = 100%]
Pressure (altimeter):29.43 inches Hg ( 996.7 mb)
Winds:from the SW (230 degrees) at 28 MPH (24 knots; 12.3 m/s) gusting to 34 MPH (30 knots; 15.4 m/s)
Visibility: 2.50 sm ( 4.02 km)
Ceiling:900 feet AGL
Clouds: broken clouds at 900 feet AGL, overcast cloud deck at 1700 feet AGL
Weather:-RA BR (light rain, mist)
QC Flag:automated observation with no human augmentation
Text:PAOU 230026Z AUTO 20018G26KT 3SM -RA BR BKN009 OVC017 06/06 A2943 RMK AO2 PK WND 18030/2357 CIG 007V012 P0000
Temperature: 6.0°C ( 43°F)
Dewpoint: 6.0°C ( 43°F) [RH = 100%]
Pressure (altimeter):29.43 inches Hg ( 996.7 mb)
Winds:from the SSW (200 degrees) at 21 MPH (18 knots; 9.3 m/s) gusting to 30 MPH (26 knots; 13.4 m/s)
Visibility: 3 sm ( 5 km)
Ceiling:900 feet AGL
Clouds: broken clouds at 900 feet AGL, overcast cloud deck at 1700 feet AGL
Weather:-RA BR (light rain, mist)
QC Flag:automated observation with no human augmentation
Text:PAOU 222356Z AUTO 18025G31KT 6SM -RA BR BKN022 OVC028 06/04 A2943 RMK AO2 PK WND 17036/2259 SLP965 P0001 60007 T00560044 10061 20022 56053
Temperature: 5.6°C ( 42°F)
Dewpoint: 4.4°C ( 40°F) [RH = 92%]
Pressure (altimeter):29.43 inches Hg ( 996.7 mb) [Sea level pressure: 996.5 mb]
Winds:from the S (180 degrees) at 29 MPH (25 knots; 12.9 m/s) gusting to 36 MPH (31 knots; 15.9 m/s)
Visibility: 6 sm ( 10 km)
Ceiling:2200 feet AGL
Clouds: broken clouds at 2200 feet AGL, overcast cloud deck at 2800 feet AGL
Weather:-RA BR (light rain, mist)
QC Flag:automated observation with no human augmentation
Text:PAOU 222343Z AUTO 18028KT 10SM -RA BKN025 OVC032 06/04 A2943 RMK AO2 PK WND 17036/2259 P0001
Temperature: 6.0°C ( 43°F)
Dewpoint: 4.0°C ( 39°F) [RH = 87%]
Pressure (altimeter):29.43 inches Hg ( 996.7 mb)
Winds:from the S (180 degrees) at 32 MPH (28 knots; 14.4 m/s)
Visibility:10 or more sm (16+ km)
Ceiling:2500 feet AGL
Clouds: broken clouds at 2500 feet AGL, overcast cloud deck at 3200 feet AGL
Weather:-RA (light rain)
QC Flag:automated observation with no human augmentation
Text:PAOU 222256Z AUTO 17031G37KT 7SM -RA BKN040 OVC047 06/03 A2946 RMK AO2 PK WND 17044/2241 SLP975 P0001 T00560033
Temperature: 5.6°C ( 42°F)
Dewpoint: 3.3°C ( 38°F) [RH = 85%]
Pressure (altimeter):29.46 inches Hg ( 997.7 mb) [Sea level pressure: 997.5 mb]
Winds:from the S (170 degrees) at 36 MPH (31 knots; 15.9 m/s) gusting to 43 MPH (37 knots; 19.0 m/s)
Visibility: 7 sm ( 11 km)
Ceiling:4000 feet AGL
Clouds: broken clouds at 4000 feet AGL, overcast cloud deck at 4700 feet AGL
Weather:-RA (light rain)
QC Flag:automated observation with no human augmentation
Text:PAOU 222156Z AUTO 15029G36KT 10SM -RA BKN044 OVC050 03/02 A2950 RMK AO2 PK WND 16041/2137 PRESFR SLP989 P0002 T00330022
Temperature: 3.3°C ( 38°F)
Dewpoint: 2.2°C ( 36°F) [RH = 92%]
Pressure (altimeter):29.50 inches Hg ( 999.1 mb) [Sea level pressure: 998.9 mb]
Winds:from the SSE (150 degrees) at 33 MPH (29 knots; 14.9 m/s) gusting to 41 MPH (36 knots; 18.5 m/s)
Visibility:10 or more sm (16+ km)
Ceiling:4400 feet AGL
Clouds: broken clouds at 4400 feet AGL, overcast cloud deck at 5000 feet AGL
Weather:-RA (light rain)
QC Flag:automated observation with no human augmentation
Text:PAOU 222106Z AUTO 15026G32KT 10SM -RA SCT022 SCT035 OVC044 03/02 A2957 RMK AO2 PK WND 16032/2105 P0000
Temperature: 3.0°C ( 37°F)
Dewpoint: 2.0°C ( 36°F) [RH = 93%]
Pressure (altimeter):29.57 inches Hg (1001.4 mb)
Winds:from the SSE (150 degrees) at 30 MPH (26 knots; 13.4 m/s) gusting to 37 MPH (32 knots; 16.5 m/s)
Visibility:10 or more sm (16+ km)
Ceiling:4400 feet AGL
Clouds: scattered clouds at 2200 feet AGL, scattered clouds at 3500 feet AGL, overcast cloud deck at 4400 feet AGL
Weather:-RA (light rain)
QC Flag:automated observation with no human augmentation
Text:PAOU 222056Z AUTO 15028G35KT 10SM -RA BKN022 BKN039 OVC048 03/02 A2958 RMK AO2 PK WND 16037/2026 UPB03E10 PRESFR SLP018 P0002 60003 T00330017 58086
Temperature: 3.3°C ( 38°F)
Dewpoint: 1.7°C ( 35°F) [RH = 89%]
Pressure (altimeter):29.58 inches Hg (1001.8 mb) [Sea level pressure: 1001.8 mb]
Winds:from the SSE (150 degrees) at 32 MPH (28 knots; 14.4 m/s) gusting to 40 MPH (35 knots; 18.0 m/s)
Visibility:10 or more sm (16+ km)
Ceiling:2200 feet AGL
Clouds: broken clouds at 2200 feet AGL, broken clouds at 3900 feet AGL, overcast cloud deck at 4800 feet AGL
Weather:-RA (light rain)
QC Flag:automated observation with no human augmentation
Text:PAOU 222015Z AUTO 15022G30KT 10SM -RA OVC028 03/02 A2965 RMK AO2 PK WND 15030/2012 UPB03E10 PRESFR P0000
Temperature: 3.0°C ( 37°F)
Dewpoint: 2.0°C ( 36°F) [RH = 93%]
Pressure (altimeter):29.65 inches Hg (1004.1 mb)
Winds:from the SSE (150 degrees) at 25 MPH (22 knots; 11.3 m/s) gusting to 34 MPH (30 knots; 15.4 m/s)
Visibility:10 or more sm (16+ km)
Ceiling:2800 feet AGL
Clouds: overcast cloud deck at 2800 feet AGL
Weather:-RA (light rain)
QC Flag:automated observation with no human augmentation
Text:PAOU 221956Z AUTO 15025G29KT 10SM -RA BKN030 OVC039 03/01 A2967 RMK AO2 PK WND 15029/1955 SLP048 P0001 T00280011
Temperature: 2.8°C ( 37°F)
Dewpoint: 1.1°C ( 34°F) [RH = 89%]
Pressure (altimeter):29.67 inches Hg (1004.8 mb) [Sea level pressure: 1004.8 mb]
Winds:from the SSE (150 degrees) at 29 MPH (25 knots; 12.9 m/s) gusting to 33 MPH (29 knots; 14.9 m/s)
Visibility:10 or more sm (16+ km)
Ceiling:3000 feet AGL
Clouds: broken clouds at 3000 feet AGL, overcast cloud deck at 3900 feet AGL
Weather:-RA (light rain)
QC Flag:automated observation with no human augmentation
Text:PAOU 221938Z AUTO 15023G27KT 10SM -RA BKN030 OVC038 03/01 A2969 RMK AO2 PK WND 15029/1921 P0001
Temperature: 3.0°C ( 37°F)
Dewpoint: 1.0°C ( 34°F) [RH = 87%]
Pressure (altimeter):29.69 inches Hg (1005.5 mb)
Winds:from the SSE (150 degrees) at 26 MPH (23 knots; 11.8 m/s) gusting to 31 MPH (27 knots; 13.9 m/s)
Visibility:10 or more sm (16+ km)
Ceiling:3000 feet AGL
Clouds: broken clouds at 3000 feet AGL, overcast cloud deck at 3800 feet AGL
Weather:-RA (light rain)
QC Flag:automated observation with no human augmentation

TAF for:PAOU (Nelson Lagoon Arpt, AK, US)
Text:No data found